createdAt,value
2023-03-07T00:00:34.698Z,1.30
2023-03-07T00:05:38.537Z,1.00
2023-03-07T00:10:42.935Z,1.50
2023-03-07T00:15:48.597Z,1.25
2023-03-07T00:20:58.955Z,1.23
2023-03-07T00:26:05.213Z,1.00
2023-03-07T00:36:17.120Z,1.40
2023-03-07T00:41:22.366Z,1.67
2023-03-07T00:46:28.770Z,1.67
2023-03-07T00:51:32.492Z,1.55
2023-03-07T00:56:37.069Z,1.42
2023-03-07T01:01:45.973Z,1.05
2023-03-07T01:06:50.521Z,1.25
2023-03-07T01:11:54.210Z,1.83
2023-03-07T01:16:59.855Z,1.60
2023-03-07T01:22:03.582Z,1.40
2023-03-07T01:27:07.360Z,1.58
2023-03-07T01:32:14.098Z,1.50
2023-03-07T01:37:18.556Z,2.00
2023-03-07T01:42:23.163Z,1.90
2023-03-07T01:47:28.821Z,1.52
2023-03-07T01:52:35.388Z,1.70
2023-03-07T01:57:42.304Z,1.55
2023-03-07T02:02:55.148Z,2.75
2023-03-07T02:08:02.779Z,2.42
2023-03-07T02:13:07.434Z,2.38
2023-03-07T02:18:17.037Z,2.40
2023-03-07T02:23:28.173Z,2.10
2023-03-07T02:28:34.463Z,2.28
2023-03-07T02:38:45.450Z,2.30
2023-03-07T02:43:50.999Z,1.70
2023-03-07T02:48:54.658Z,1.53
2023-03-07T02:53:58.365Z,1.30
2023-03-07T02:59:05.858Z,1.45
2023-03-07T03:04:09.718Z,1.73
2023-03-07T03:09:13.840Z,1.48
2023-03-07T03:14:19.265Z,1.77
2023-03-07T03:19:22.925Z,1.55
2023-03-07T03:24:27.364Z,1.50
2023-03-07T03:29:34.099Z,1.80
2023-03-07T03:34:38.292Z,1.33
2023-03-07T03:39:42.279Z,1.40
2023-03-07T03:44:48.372Z,1.70
2023-03-07T03:49:54.150Z,1.65
2023-03-07T03:54:58.034Z,1.90
2023-03-07T04:00:04.890Z,1.92
2023-03-07T04:05:10.342Z,1.30
2023-03-07T04:10:14.310Z,1.43
2023-03-07T04:15:20.090Z,1.98
2023-03-07T04:20:25.106Z,1.50
2023-03-07T04:25:28.822Z,1.65
2023-03-07T04:30:34.100Z,1.80
2023-03-07T04:35:38.272Z,1.90
2023-03-07T04:40:42.384Z,1.70
2023-03-07T04:45:47.704Z,1.70
2023-03-07T04:50:51.565Z,1.80
2023-03-07T04:55:59.181Z,2.10
2023-03-07T05:01:05.731Z,1.80
2023-03-07T05:06:13.495Z,1.95
2023-03-07T05:11:17.198Z,2.15
2023-03-07T05:16:22.560Z,1.95
2023-03-07T05:26:29.951Z,2.13
2023-03-07T05:31:35.308Z,1.55
2023-03-07T05:36:38.954Z,1.77
2023-03-07T05:41:42.771Z,1.70
2023-03-07T05:46:48.114Z,1.48
2023-03-07T05:51:51.794Z,1.67
2023-03-07T05:56:55.403Z,1.90
2023-03-07T06:02:00.697Z,1.45
2023-03-07T06:07:04.408Z,2.03
2023-03-07T06:12:09.044Z,2.25
2023-03-07T06:17:14.346Z,2.28
2023-03-07T06:22:17.963Z,2.05
2023-03-07T06:27:21.636Z,2.10
2023-03-07T06:32:27.098Z,2.28
2023-03-07T06:37:30.766Z,3.03
2023-03-07T06:42:34.401Z,2.72
2023-03-07T06:47:39.753Z,2.67
2023-03-07T06:52:43.416Z,2.08
2023-03-07T06:57:47.502Z,2.00
2023-03-07T07:02:53.064Z,2.15
2023-03-07T07:07:56.740Z,2.00
2023-03-07T07:13:00.465Z,1.52
2023-03-07T07:18:05.852Z,1.52
2023-03-07T07:23:09.508Z,1.33
2023-03-07T07:28:13.177Z,1.48
2023-03-07T07:33:18.895Z,1.13
2023-03-07T07:38:22.667Z,1.85
2023-03-07T07:43:26.418Z,1.40
2023-03-07T07:48:31.922Z,1.30
2023-03-07T07:53:35.657Z,1.20
2023-03-07T07:58:39.290Z,1.15
2023-03-07T08:03:44.937Z,1.02
2023-03-07T08:08:48.663Z,1.50
2023-03-07T08:13:52.311Z,1.10
2023-03-07T08:18:58.273Z,1.25
2023-03-07T08:24:01.925Z,1.02
2023-03-07T08:29:05.553Z,0.82
2023-03-07T08:34:10.831Z,1.00
2023-03-07T08:39:14.936Z,1.00
2023-03-07T08:44:18.570Z,0.70
2023-03-07T08:49:23.914Z,0.88
2023-03-07T08:54:29.110Z,0.90
2023-03-07T08:59:33.477Z,1.10
2023-03-07T09:04:38.979Z,0.80
2023-03-07T09:09:42.774Z,0.97
2023-03-07T09:14:46.444Z,0.98
2023-03-07T09:19:51.760Z,1.35
2023-03-07T09:24:55.414Z,1.30
2023-03-07T09:29:59.024Z,0.80
2023-03-07T09:35:04.673Z,1.00
2023-03-07T09:40:12.948Z,0.80
2023-03-07T09:45:36.134Z,1.10
2023-03-07T09:50:50.963Z,1.02
2023-03-07T09:55:57.985Z,0.90
2023-03-07T10:01:01.941Z,1.08
2023-03-07T10:06:15.128Z,1.23
2023-03-07T10:11:29.892Z,1.10
2023-03-07T10:16:39.983Z,1.10
2023-03-07T10:21:59.040Z,0.88
2023-03-07T10:27:06.042Z,1.00
2023-03-07T10:32:22.918Z,0.80
2023-03-07T10:37:43.681Z,1.30
2023-03-07T10:42:47.560Z,1.83
2023-03-07T10:47:51.212Z,2.80
2023-03-07T10:52:59.089Z,1.23
2023-03-07T10:58:17.869Z,1.20
2023-03-07T11:03:27.462Z,1.73
2023-03-07T11:08:35.176Z,1.88
2023-03-07T11:13:39.272Z,4.65
2023-03-07T11:18:44.212Z,1.40
2023-03-07T11:24:00.502Z,1.80
2023-03-07T11:29:08.939Z,1.17
2023-03-07T11:34:36.202Z,1.58
2023-03-07T11:39:49.158Z,1.30
2023-03-07T11:44:55.091Z,1.10
2023-03-07T11:50:14.529Z,1.00
2023-03-07T11:55:29.695Z,1.10
2023-03-07T12:00:37.590Z,0.93
2023-03-07T12:05:57.591Z,1.00
2023-03-07T12:11:15.519Z,1.00
2023-03-07T12:16:24.555Z,0.85
2023-03-07T12:21:49.630Z,0.82
2023-03-07T12:27:01.288Z,1.08
2023-03-07T12:32:10.155Z,1.20
2023-03-07T12:37:20.800Z,1.05
2023-03-07T12:42:36.048Z,0.80
2023-03-07T12:47:56.463Z,0.85
2023-03-07T12:53:04.937Z,1.20
2023-03-07T12:58:20.232Z,1.30
2023-03-07T13:03:35.082Z,1.48
2023-03-07T13:08:40.719Z,1.52
2023-03-07T13:13:58.758Z,1.33
2023-03-07T13:19:34.620Z,1.38
2023-03-07T13:24:39.423Z,1.90
2023-03-07T13:30:17.819Z,1.30
2023-03-07T13:35:55.578Z,1.75
2023-03-07T13:41:01.152Z,1.50
2023-03-07T13:46:27.003Z,1.77
2023-03-07T13:51:30.785Z,1.50
2023-03-07T13:56:41.076Z,1.42
2023-03-07T14:01:49.742Z,1.63
2023-03-07T14:06:56.214Z,1.70
2023-03-07T14:12:08.352Z,1.67
2023-03-07T14:17:29.772Z,1.75
2023-03-07T14:22:55.458Z,1.83
2023-03-07T14:28:00.379Z,1.48
2023-03-07T14:33:05.709Z,2.17
2023-03-07T14:38:16.655Z,2.10
2023-03-07T14:43:37.551Z,1.88
2023-03-07T14:49:02.122Z,2.40
2023-03-07T14:54:13.204Z,1.75
2023-03-07T14:59:28.009Z,1.90
2023-03-07T15:04:34.453Z,1.80
2023-03-07T15:09:38.177Z,1.53
2023-03-07T15:14:45.725Z,1.77
2023-03-07T15:19:55.853Z,3.00
2023-03-07T15:24:59.703Z,2.08
2023-03-07T15:30:04.662Z,2.50
2023-03-07T15:35:19.066Z,2.55
2023-03-07T15:40:29.572Z,2.35
2023-03-07T15:45:34.983Z,2.35
2023-03-07T15:50:40.411Z,2.50
2023-03-07T15:55:46.024Z,2.45
2023-03-07T16:00:49.720Z,2.63
2023-03-07T16:05:56.271Z,2.55
2023-03-07T16:11:03.091Z,2.35
2023-03-07T16:16:16.482Z,2.65
2023-03-07T16:21:22.067Z,2.67
2023-03-07T16:26:26.194Z,2.40
2023-03-07T16:31:29.923Z,3.30
2023-03-07T16:36:36.162Z,3.90
2023-03-07T16:41:43.701Z,2.90
2023-03-07T16:46:52.243Z,2.70
2023-03-07T16:52:05.590Z,2.83
2023-03-07T16:57:15.578Z,2.42
2023-03-07T17:02:21.427Z,2.70
2023-03-07T17:07:26.810Z,2.08
2023-03-07T17:12:30.536Z,2.28
2023-03-07T17:17:36.616Z,2.05
2023-03-07T17:22:41.987Z,2.13
2023-03-07T17:27:49.417Z,1.85
2023-03-07T17:32:53.936Z,1.55
2023-03-07T17:37:59.203Z,1.88
2023-03-07T17:43:02.872Z,1.70
2023-03-07T17:48:09.032Z,1.60
2023-03-07T17:53:14.321Z,1.95
2023-03-07T17:58:17.983Z,1.52
2023-03-07T18:03:22.276Z,1.77
2023-03-07T18:08:27.617Z,1.70
2023-03-07T18:13:31.374Z,1.48
2023-03-07T18:18:36.332Z,1.50
2023-03-07T18:23:41.704Z,1.33
2023-03-07T18:28:47.023Z,2.00
2023-03-07T18:33:51.084Z,1.40
2023-03-07T18:38:56.381Z,1.17
2023-03-07T18:44:00.140Z,1.40
2023-03-07T18:49:03.737Z,1.05
2023-03-07T18:54:09.090Z,1.30
2023-03-07T18:59:12.710Z,1.37
2023-03-07T19:04:16.650Z,1.10
2023-03-07T19:09:21.996Z,0.82
2023-03-07T19:14:25.677Z,1.00
2023-03-07T19:19:29.326Z,1.05
2023-03-07T19:24:34.848Z,0.98
2023-03-07T19:29:38.445Z,0.90
2023-03-07T19:34:42.053Z,0.95
2023-03-07T19:39:47.304Z,0.90
2023-03-07T19:44:50.920Z,1.17
2023-03-07T19:49:54.528Z,1.00
2023-03-07T19:54:59.781Z,1.20
2023-03-07T20:00:03.572Z,0.97
2023-03-07T20:05:07.934Z,1.45
2023-03-07T20:10:13.876Z,1.00
2023-03-07T20:15:17.664Z,1.27
2023-03-07T20:20:21.361Z,1.20
2023-03-07T20:25:29.392Z,1.00
2023-03-07T20:30:33.019Z,1.10
2023-03-07T20:35:36.678Z,0.82
2023-03-07T20:40:42.015Z,1.55
2023-03-07T20:45:45.653Z,1.40
2023-03-07T20:50:49.298Z,1.00
2023-03-07T20:55:54.602Z,1.35
2023-03-07T21:00:58.492Z,1.10
2023-03-07T21:06:03.666Z,0.95
2023-03-07T21:11:21.289Z,1.47
2023-03-07T21:16:25.442Z,1.58
2023-03-07T21:21:30.340Z,1.60
2023-03-07T21:26:36.869Z,1.13
2023-03-07T21:31:40.542Z,1.08
2023-03-07T21:36:44.299Z,1.15
2023-03-07T21:41:49.595Z,1.10
2023-03-07T21:46:53.228Z,1.00
2023-03-07T21:51:56.870Z,1.13
2023-03-07T21:57:02.176Z,1.05
2023-03-07T22:02:05.811Z,1.00
2023-03-07T22:07:09.442Z,1.20
2023-03-07T22:12:14.727Z,1.40
2023-03-07T22:17:18.374Z,0.90
2023-03-07T22:22:22.282Z,1.10
2023-03-07T22:27:27.607Z,1.50
2023-03-07T22:32:31.334Z,1.27
2023-03-07T22:37:34.973Z,1.38
2023-03-07T22:42:40.322Z,1.10
2023-03-07T22:47:43.971Z,1.20
2023-03-07T22:52:47.651Z,1.65
2023-03-07T22:57:52.935Z,1.08
2023-03-07T23:02:56.603Z,1.13
2023-03-07T23:08:00.318Z,1.30
2023-03-07T23:13:05.628Z,0.80
2023-03-07T23:18:09.618Z,1.40
2023-03-07T23:23:13.268Z,0.90
2023-03-07T23:28:18.579Z,1.30
2023-03-07T23:33:22.197Z,1.17
2023-03-07T23:38:25.818Z,1.20
2023-03-07T23:43:31.082Z,1.38
2023-03-07T23:48:34.767Z,1.60
2023-03-07T23:53:38.615Z,1.05
2023-03-07T23:58:44.390Z,1.05
